Time;durP1;ratioP1;P1;durP2;ratioP2;P2;SDS_P1;SDS_P2;PMS_P1;PMS_P2;Temp;Humidity;BMP_temperature;BMP_pressure;BME280_temperature;BME280_humidity;BME280_pressure;Samples;Min_cycle;Max_cycle;Signal;HPM_P1;HPM_P2
2022/04/16 00:00:47;;;;;;;16.80;9.02;;;;;;;14.33;45.60;99572.28;3144222;28;20056;-66
2022/04/16 00:02:19;;;;;;;16.88;9.15;;;;;;;14.33;45.74;99564.44;3145603;28;20076;-66
2022/04/16 00:03:53;;;;;;;22.00;9.60;;;;;;;14.32;45.71;99573.25;3145426;28;20525;-66
2022/04/16 00:05:24;;;;;;;17.98;9.10;;;;;;;14.33;45.47;99572.28;3145659;28;20222;-66
2022/04/16 00:06:56;;;;;;;19.15;9.70;;;;;;;14.22;45.65;99548.56;3145674;28;20544;-66
2022/04/16 00:08:30;;;;;;;26.20;9.98;;;;;;;14.31;45.38;99570.72;3135872;28;20529;-66
2022/04/16 00:10:02;;;;;;;17.55;9.70;;;;;;;14.29;45.52;99564.75;3144840;28;20101;-66
2022/04/16 00:11:34;;;;;;;19.17;9.75;;;;;;;14.28;45.93;99573.53;3140791;28;20052;-66
2022/04/16 00:13:05;;;;;;;18.95;8.80;;;;;;;14.27;45.91;99577.94;3145176;28;20075;-66
2022/04/16 00:14:39;;;;;;;17.80;9.27;;;;;;;14.27;46.00;99579.72;3141592;28;20049;-66
2022/04/16 00:16:10;;;;;;;16.40;8.90;;;;;;;14.19;45.95;99563.63;3145197;28;20143;-67
2022/04/16 00:17:42;;;;;;;18.27;8.95;;;;;;;14.24;45.87;99583.38;3143955;28;20097;-68
2022/04/16 00:19:14;;;;;;;16.85;10.00;;;;;;;14.23;46.20;99578.25;3144209;28;20070;-67
2022/04/16 00:20:48;;;;;;;19.05;8.90;;;;;;;14.23;45.92;99580.84;3145531;28;20055;-67
2022/04/16 00:22:23;;;;;;;17.55;8.75;;;;;;;14.22;46.33;99581.78;3142443;28;20049;-67
2022/04/16 00:23:55;;;;;;;15.27;8.60;;;;;;;14.18;46.18;99588.16;3145309;28;20048;-67
2022/04/16 00:25:28;;;;;;;19.48;9.07;;;;;;;14.15;46.33;99586.56;3142925;28;20477;-67
2022/04/16 00:27:00;;;;;;;18.02;9.60;;;;;;;14.17;46.36;99589.06;3137828;28;20056;-67
2022/04/16 00:28:33;;;;;;;18.83;9.30;;;;;;;14.06;46.08;99584.53;3145565;28;20472;-68
2022/04/16 00:30:08;;;;;;;18.00;8.10;;;;;;;14.12;46.41;99589.38;3145119;28;20044;-68
2022/04/16 00:31:38;;;;;;;19.80;9.73;;;;;;;14.04;46.62;99591.63;3143065;28;20053;-68
2022/04/16 00:33:12;;;;;;;21.23;9.63;;;;;;;13.92;46.27;99567.06;3145420;28;20703;-69
2022/04/16 00:34:45;;;;;;;21.38;10.45;;;;;;;14.05;46.50;99599.41;3141762;28;20114;-69
2022/04/16 00:36:17;;;;;;;19.27;10.35;;;;;;;14.01;46.76;99603.13;3144889;28;20114;-67
2022/04/16 00:37:51;;;;;;;21.45;10.18;;;;;;;13.99;46.44;99601.53;3144644;28;20097;-69
2022/04/16 00:39:22;;;;;;;19.08;10.13;;;;;;;13.93;47.00;99601.94;3140704;28;20559;-69
2022/04/16 00:40:55;;;;;;;19.10;9.85;;;;;;;13.91;46.93;99609.06;3145637;28;20048;-69
2022/04/16 00:42:33;;;;;;;20.52;9.60;;;;;;;13.86;47.13;99609.34;3143185;28;20059;-69
2022/04/16 00:44:05;;;;;;;21.55;9.23;;;;;;;13.83;46.88;99607.75;3138579;28;20654;-69
2022/04/16 00:45:39;;;;;;;22.17;8.67;;;;;;;13.77;47.32;99602.88;3140712;28;20106;-68
2022/04/16 00:47:12;;;;;;;;;;;;;;;13.73;47.29;99609.25;3145852;28;20102;-69
2022/04/16 00:48:44;;;;;;;17.38;8.63;;;;;;;13.63;47.24;99592.41;3140303;28;20111;-69
2022/04/16 00:50:17;;;;;;;18.45;8.35;;;;;;;13.67;47.14;99603.56;3139439;28;20054;-69
2022/04/16 00:51:50;;;;;;;16.25;8.43;;;;;;;13.65;47.15;99601.84;3136332;28;20058;-69
2022/04/16 00:53:25;;;;;;;15.40;7.72;;;;;;;13.64;47.15;99607.19;3139967;28;20110;-69
2022/04/16 00:54:58;;;;;;;15.63;8.02;;;;;;;13.63;46.96;99602.88;3139463;28;20471;-68
2022/04/16 00:56:30;;;;;;;13.75;8.48;;;;;;;13.63;47.24;99613.34;3142987;28;20501;-69
2022/04/16 00:58:02;;;;;;;16.85;7.82;;;;;;;13.47;46.96;99578.59;3139304;28;20059;-69
2022/04/16 00:59:34;;;;;;;13.70;8.15;;;;;;;13.64;47.19;99609.81;3139335;28;20056;-69
2022/04/16 01:01:08;;;;;;;19.00;7.90;;;;;;;13.64;46.93;99609.81;3139944;28;20058;-69
2022/04/16 01:02:40;;;;;;;15.82;7.72;;;;;;;13.65;47.01;99612.31;3138734;28;20543;-69
2022/04/16 01:04:13;;;;;;;19.60;8.67;;;;;;;13.62;47.31;99609.91;3136910;28;20048;-69
2022/04/16 01:05:46;;;;;;;20.20;8.70;;;;;;;13.64;47.17;99620.28;3133934;28;20111;-69
2022/04/16 01:07:23;;;;;;;20.45;8.15;;;;;;;13.64;47.01;99610.66;3139691;28;20052;-69
2022/04/16 01:08:55;;;;;;;17.92;8.27;;;;;;;13.65;47.35;99611.50;3138297;28;20569;-69
2022/04/16 01:10:28;;;;;;;18.73;9.07;;;;;;;13.62;47.21;99611.69;3139888;28;20052;-69
2022/04/16 01:12:00;;;;;;;19.40;9.43;;;;;;;13.62;47.47;99617.75;3138809;28;20090;-69
2022/04/16 01:13:32;;;;;;;20.15;9.57;;;;;;;13.62;47.32;99627.38;3136491;28;20048;-69
2022/04/16 01:15:05;;;;;;;18.30;10.10;;;;;;;13.59;47.70;99614.47;3138790;28;20462;-70
2022/04/16 01:16:39;;;;;;;18.33;9.30;;;;;;;13.56;47.91;99619.91;3137449;28;20060;-69
2022/04/16 01:18:12;;;;;;;;;;;;;;;13.53;47.56;99614.84;3140289;28;20175;-67
2022/04/16 01:19:44;;;;;;;14.68;8.70;;;;;;;13.51;47.68;99625.41;3135924;28;19924;-66
2022/04/16 01:21:17;;;;;;;21.40;9.05;;;;;;;13.49;47.61;99616.81;3139698;28;20428;-67
2022/04/16 01:22:50;;;;;;;22.05;9.80;;;;;;;13.48;47.76;99616.91;3137177;28;20596;-68
2022/04/16 01:24:22;;;;;;;21.40;8.55;;;;;;;13.42;47.94;99600.63;3139475;28;20084;-67
2022/04/16 01:25:55;;;;;;;16.95;9.05;;;;;;;13.38;48.09;99601.75;3135902;28;20052;-68
2022/04/16 01:27:27;;;;;;;19.42;8.15;;;;;;;13.32;47.75;99599.50;3139577;28;20052;-67
2022/04/16 01:29:01;;;;;;;16.83;8.80;;;;;;;13.25;47.94;99590.34;3138745;28;20052;-67
2022/04/16 01:30:34;;;;;;;20.63;8.52;;;;;;;13.22;47.91;99587.88;3139482;28;20051;-67
2022/04/16 01:32:07;;;;;;;14.63;7.40;;;;;;;13.26;48.08;99604.28;3137161;28;20074;-66
2022/04/16 01:33:39;;;;;;;16.40;7.32;;;;;;;13.22;48.22;99595.72;3139679;28;20055;-67
2022/04/16 01:35:12;;;;;;;15.10;7.45;;;;;;;13.20;48.02;99600.22;3139690;28;20170;-67
2022/04/16 01:36:44;;;;;;;15.57;8.35;;;;;;;13.12;48.11;99598.03;3133953;28;20057;-66
2022/04/16 01:38:17;;;;;;;15.68;8.20;;;;;;;12.94;48.62;99576.44;3139854;28;20181;-66
2022/04/16 01:39:49;;;;;;;14.75;8.15;;;;;;;13.02;48.37;99607.38;3134419;28;20052;-66
2022/04/16 01:41:21;;;;;;;18.73;9.00;;;;;;;13.02;48.55;99594.28;3139600;28;20060;-69
2022/04/16 01:42:57;;;;;;;17.17;8.75;;;;;;;13.02;48.79;99601.31;3135367;28;20131;-69
2022/04/16 01:44:30;;;;;;;23.95;8.25;;;;;;;13.00;48.71;99593.53;3139686;28;20057;-69
2022/04/16 01:46:04;;;;;;;14.27;7.47;;;;;;;12.99;48.87;99584.03;3137611;28;20052;-69
2022/04/16 01:47:36;;;;;;;17.80;7.75;;;;;;;12.92;48.85;99580.91;3139664;28;20048;-67
2022/04/16 01:49:10;;;;;;;15.23;8.00;;;;;;;12.94;48.94;99580.81;3134163;28;20052;-67
2022/04/16 01:50:41;;;;;;;18.90;7.50;;;;;;;12.96;48.88;99592.88;3138417;28;20049;-66
2022/04/16 01:52:13;;;;;;;15.23;7.05;;;;;;;12.93;49.11;99590.44;3139244;28;20055;-67
2022/04/16 01:53:47;;;;;;;17.40;7.60;;;;;;;12.79;48.77;99560.81;3139353;28;20338;-67
2022/04/16 01:55:19;;;;;;;17.27;8.18;;;;;;;12.86;48.99;99575.19;3139617;28;20072;-66
2022/04/16 01:56:50;;;;;;;17.95;8.15;;;;;;;12.88;48.74;99575.97;3138248;28;20045;-67
2022/04/16 01:58:21;;;;;;;19.77;7.95;;;;;;;12.84;49.08;99570.06;3139613;28;20220;-67
2022/04/16 01:59:55;;;;;;;19.00;7.90;;;;;;;12.90;49.30;99580.16;3138557;28;20495;-67
2022/04/16 02:01:27;;;;;;;22.58;8.40;;;;;;;12.89;49.21;99568.00;3139309;28;20048;-66
2022/04/16 02:02:59;;;;;;;16.65;7.82;;;;;;;12.88;49.08;99587.25;3138307;28;20492;-66
2022/04/16 02:04:32;;;;;;;18.33;7.90;;;;;;;12.87;49.06;99571.66;3139593;28;20908;-67
2022/04/16 02:06:05;;;;;;;16.92;8.30;;;;;;;12.82;48.99;99573.69;3136789;28;20551;-67
2022/04/16 02:07:38;;;;;;;18.88;8.75;;;;;;;12.78;49.42;99574.78;3137167;28;20052;-68
2022/04/16 02:09:11;;;;;;;;;;;;;;;12.67;49.38;99581.50;3139410;28;20537;-66
2022/04/16 02:10:43;;;;;;;20.90;8.48;;;;;;;12.50;49.63;99564.16;3135555;28;20312;-67
2022/04/16 02:12:15;;;;;;;17.52;8.18;;;;;;;12.20;50.05;99531.94;3139525;28;20059;-67
2022/04/16 02:13:47;;;;;;;26.80;8.48;;;;;;;12.37;50.19;99572.78;3137790;28;20505;-66
2022/04/16 02:15:19;;;;;;;17.02;8.68;;;;;;;12.27;50.65;99568.09;3139445;28;20135;-66
2022/04/16 02:16:51;;;;;;;24.88;8.80;;;;;;;12.18;50.77;99568.56;3135856;28;20048;-66
2022/04/16 02:18:23;;;;;;;17.85;8.80;;;;;;;12.13;51.20;99569.78;3139414;28;20056;-67
2022/04/16 02:19:55;;;;;;;22.40;7.90;;;;;;;12.07;51.07;99571.78;3136554;28;20498;-67
2022/04/16 02:21:30;;;;;;;22.25;7.93;;;;;;;12.02;51.59;99576.41;3139524;28;20126;-67
2022/04/16 02:23:03;;;;;;;16.02;7.82;;;;;;;11.96;51.73;99575.91;3137185;28;20441;-67
2022/04/16 02:24:38;;;;;;;24.58;8.13;;;;;;;11.92;51.95;99572.63;3139609;28;20056;-67
2022/04/16 02:26:10;;;;;;;16.23;7.65;;;;;;;11.87;51.88;99571.19;3137464;28;20056;-67
2022/04/16 02:27:42;;;;;;;16.63;8.02;;;;;;;11.85;52.07;99576.47;3139568;28;20049;-67
2022/04/16 02:29:15;;;;;;;20.73;7.43;;;;;;;11.83;52.11;99566.13;3136549;28;20049;-67
2022/04/16 02:30:47;;;;;;;14.45;7.68;;;;;;;11.80;52.08;99562.81;3137973;28;20053;-67
2022/04/16 02:32:19;;;;;;;17.75;7.75;;;;;;;11.80;52.20;99562.81;3140834;28;20056;-66
2022/04/16 02:33:51;;;;;;;18.45;8.60;;;;;;;11.76;52.41;99554.31;3141324;28;20056;-68
2022/04/16 02:35:23;;;;;;;18.95;7.95;;;;;;;11.79;52.40;99558.53;3141918;28;20049;-67
2022/04/16 02:36:58;;;;;;;14.05;7.63;;;;;;;11.79;52.52;99558.53;3136476;28;20060;-68
2022/04/16 02:38:30;;;;;;;15.88;7.80;;;;;;;11.80;52.37;99554.97;3141278;28;20071;-68
2022/04/16 02:40:05;;;;;;;16.55;8.25;;;;;;;11.80;52.19;99552.38;3137389;28;20147;-67
2022/04/16 02:41:37;;;;;;;18.25;9.00;;;;;;;11.79;52.09;99543.69;3141646;28;20056;-68
2022/04/16 02:43:09;;;;;;;18.13;7.93;;;;;;;11.80;52.44;99545.41;3139012;28;20087;-68
2022/04/16 02:48:20;;;;;;;13.27;7.85;;;;;;;11.69;52.58;99532.09;3136001;28;20481;-68
2022/04/16 02:49:52;;;;;;;15.82;7.70;;;;;;;11.72;52.67;99538.91;3132528;28;20052;-68
2022/04/16 02:51:24;;;;;;;13.40;8.05;;;;;;;11.71;52.74;99547.66;3141123;28;20196;-67
2022/04/16 02:52:56;;;;;;;15.18;8.20;;;;;;;11.64;52.77;99541.09;3146203;28;20057;-69
2022/04/16 02:54:28;;;;;;;15.35;7.43;;;;;;;11.66;53.03;99549.69;3143920;28;20060;-68
2022/04/16 02:56:01;;;;;;;17.27;8.23;;;;;;;11.63;53.18;99544.63;3149559;28;20040;-68
2022/04/16 02:57:34;;;;;;;14.70;7.47;;;;;;;11.59;52.90;99539.59;3144819;28;20060;-68
2022/04/16 02:59:06;;;;;;;15.38;7.43;;;;;;;11.56;53.29;99537.09;3146678;28;20071;-68
2022/04/16 03:00:37;;;;;;;15.35;7.18;;;;;;;11.52;53.20;99540.81;3145531;28;20061;-68
2022/04/16 03:02:11;;;;;;;11.48;5.93;;;;;;;11.51;53.21;99546.13;3145952;28;20052;-68
2022/04/16 03:03:43;;;;;;;10.68;6.10;;;;;;;11.51;53.08;99546.13;3143168;28;20133;-69
2022/04/16 03:05:15;;;;;;;14.27;6.03;;;;;;;11.51;52.93;99546.13;3144754;28;20052;-68
2022/04/16 03:06:47;;;;;;;17.13;7.60;;;;;;;11.52;52.79;99540.81;3145157;28;20056;-67
2022/04/16 03:08:18;;;;;;;19.35;6.82;;;;;;;11.55;53.04;99543.25;3142764;28;20053;-68
2022/04/16 03:09:49;;;;;;;13.88;6.70;;;;;;;11.60;52.86;99545.63;3146413;28;20110;-68
2022/04/16 03:11:23;;;;;;;20.85;6.60;;;;;;;11.64;52.45;99546.31;3139395;28;20492;-68
2022/04/16 03:12:55;;;;;;;13.88;6.47;;;;;;;11.67;52.49;99544.38;3140622;28;20061;-67
2022/04/16 03:18:08;;;;;;;10.90;6.50;;;;;;;11.75;51.90;99555.25;3145621;28;20052;-67
2022/04/16 03:19:38;;;;;;;;;;;;;;;11.75;51.79;99555.25;3141950;28;20187;-67
2022/04/16 03:21:11;;;;;;;16.33;6.22;;;;;;;11.76;51.97;99556.09;3146336;28;19938;-67
2022/04/16 03:22:44;;;;;;;11.40;6.80;;;;;;;11.74;51.93;99555.31;3146379;28;20105;-67
2022/04/16 03:24:16;;;;;;;18.98;6.60;;;;;;;11.76;51.88;99558.69;3144267;28;20315;-67
2022/04/16 03:25:48;;;;;;;10.73;6.00;;;;;;;11.76;51.80;99551.69;3146035;28;20595;-68
2022/04/16 03:27:21;;;;;;;12.85;6.53;;;;;;;11.74;51.78;99548.34;3141615;28;20044;-67
2022/04/16 03:28:53;;;;;;;19.90;6.22;;;;;;;11.75;51.75;99549.19;3146276;28;20048;-67
2022/04/16 03:30:25;;;;;;;9.25;5.35;;;;;;;11.76;52.07;99556.09;3145159;28;20132;-67
2022/04/16 03:31:57;;;;;;;14.43;6.53;;;;;;;11.76;51.76;99561.28;3141101;28;20045;-67
2022/04/16 03:33:31;;;;;;;10.85;6.10;;;;;;;11.76;51.71;99559.53;3146191;28;20538;-68
2022/04/16 03:35:03;;;;;;;13.27;6.30;;;;;;;11.77;51.87;99562.97;3145836;28;20127;-68
2022/04/16 03:36:35;;;;;;;15.55;6.18;;;;;;;11.77;51.97;99562.97;3146274;28;20113;-68
2022/04/16 03:38:07;;;;;;;12.65;6.10;;;;;;;11.77;51.82;99568.19;3140973;28;20048;-68
2022/04/16 03:39:38;;;;;;;14.38;6.72;;;;;;;11.70;51.94;99557.25;3145027;28;20052;-68
2022/04/16 03:41:11;;;;;;;11.77;6.20;;;;;;;11.76;51.95;99566.50;3142011;28;20048;-68
2022/04/16 03:42:48;;;;;;;12.52;5.88;;;;;;;11.76;51.95;99569.13;3145817;28;20075;-68
2022/04/16 03:44:20;;;;;;;14.10;6.30;;;;;;;11.71;52.23;99568.53;3144448;28;20048;-68
2022/04/16 03:45:52;;;;;;;16.20;6.80;;;;;;;11.71;52.06;99571.13;3146042;28;20114;-67
2022/04/16 03:47:23;;;;;;;12.18;6.00;;;;;;;11.71;52.30;99568.53;3143820;28;20052;-68
2022/04/16 03:48:55;;;;;;;16.75;7.25;;;;;;;11.69;52.39;99570.38;3145957;28;20205;-67
2022/04/16 03:50:28;;;;;;;16.63;7.20;;;;;;;11.69;52.28;99567.78;3145744;28;20125;-67
2022/04/16 03:51:59;;;;;;;;;;;;;;;11.68;52.19;99571.28;3143632;28;20056;-67
2022/04/16 03:53:33;;;;;;;15.52;6.38;;;;;;;11.61;52.34;99562.97;3145869;28;19930;-67
2022/04/16 04:00:44;;;;;;;15.00;6.93;;;;;;;11.67;52.36;99580.88;3139744;28;20098;-68
2022/04/16 04:02:16;;;;;;;15.57;7.40;;;;;;;11.68;52.68;99574.75;3140020;28;20048;-67
2022/04/16 04:03:48;;;;;;;22.40;7.60;;;;;;;11.66;53.13;99581.81;3145540;28;20131;-68
2022/04/16 04:05:20;;;;;;;18.63;7.45;;;;;;;11.51;53.05;99561.78;3143063;28;20168;-68
2022/04/16 04:06:52;;;;;;;16.90;6.70;;;;;;;11.54;53.32;99578.09;3145860;28;20052;-68
2022/04/16 04:08:25;;;;;;;11.63;6.03;;;;;;;11.55;53.37;99584.16;3140431;28;20498;-68
2022/04/16 04:09:57;;;;;;;19.08;6.25;;;;;;;11.49;53.19;99576.66;3145403;28;20467;-68
2022/04/16 04:11:29;;;;;;;14.45;6.50;;;;;;;11.51;53.12;99583.47;3141407;28;20052;-67
2022/04/16 04:13:01;;;;;;;12.45;5.95;;;;;;;11.48;53.09;99581.03;3145524;28;20715;-67
2022/04/16 04:14:38;;;;;;;12.63;6.72;;;;;;;11.35;53.06;99566.94;3136307;28;20060;-67
2022/04/16 04:16:10;;;;;;;20.83;7.07;;;;;;;11.45;53.42;99585.56;3145641;28;20049;-67
2022/04/16 04:17:41;;;;;;;19.33;7.53;;;;;;;11.42;53.30;99588.31;3143462;28;20437;-67
2022/04/16 04:19:13;;;;;;;16.40;7.45;;;;;;;11.37;53.54;99585.94;3147300;28;20052;-67
2022/04/16 04:20:45;;;;;;;18.92;8.25;;;;;;;11.34;53.78;99586.13;3148434;28;20652;-67
2022/04/16 04:22:17;;;;;;;17.45;7.20;;;;;;;11.32;53.76;99593.16;3143268;28;20110;-67
2022/04/16 04:23:49;;;;;;;22.38;8.20;;;;;;;11.31;53.69;99588.88;3143645;28;20048;-67
2022/04/16 04:25:21;;;;;;;18.17;8.05;;;;;;;11.19;53.65;99568.66;3145185;28;20048;-67
2022/04/16 04:26:55;;;;;;;15.65;7.15;;;;;;;11.34;53.84;99588.72;3144548;28;20044;-67
2022/04/16 04:28:27;;;;;;;15.82;7.20;;;;;;;11.37;53.69;99588.56;3144022;28;20056;-68
2022/04/16 04:30:01;;;;;;;21.23;7.55;;;;;;;11.36;53.63;99592.94;3145555;28;20048;-68
2022/04/16 04:31:33;;;;;;;23.65;7.80;;;;;;;11.38;53.66;99590.22;3142066;28;20518;-68
2022/04/16 04:33:05;;;;;;;20.55;7.85;;;;;;;11.36;53.45;99582.50;3143291;28;20083;-65
2022/04/16 04:34:37;;;;;;;21.20;8.20;;;;;;;11.48;53.33;99598.44;3147926;28;20056;-66
2022/04/16 04:36:09;;;;;;;19.63;8.98;;;;;;;11.50;53.44;99600.03;3140558;28;20131;-65
2022/04/16 04:37:47;;;;;;;19.10;8.02;;;;;;;11.54;53.20;99601.56;3157025;28;20083;-66
2022/04/16 04:39:18;;;;;;;23.75;8.32;;;;;;;11.51;53.25;99590.47;3152316;28;20048;-65
2022/04/16 04:40:50;;;;;;;22.10;8.15;;;;;;;11.58;53.13;99595.25;3151476;28;20460;-65
2022/04/16 04:42:27;;;;;;;23.48;7.85;;;;;;;11.49;52.89;99582.69;3149716;28;20044;-65
2022/04/16 04:43:59;;;;;;;16.80;7.47;;;;;;;11.61;52.94;99595.09;3153644;28;20048;-66
2022/04/16 04:45:33;;;;;;;17.50;7.03;;;;;;;11.63;52.77;99599.41;3148899;28;20132;-69
2022/04/16 04:47:08;;;;;;;13.60;6.47;;;;;;;11.64;52.84;99603.69;3153313;28;20307;-66
2022/04/16 04:48:46;;;;;;;13.13;6.05;;;;;;;11.50;52.45;99581.78;3150040;28;20487;-67
2022/04/16 04:50:19;;;;;;;16.15;6.45;;;;;;;11.65;52.46;99603.59;3149705;28;20054;-66
2022/04/16 04:51:51;;;;;;;12.38;5.35;;;;;;;11.65;52.62;99608.81;3150686;28;20052;-65
2022/04/16 04:56:00;;;;;;;11.35;6.82;;;;;;;11.67;52.45;99599.16;3137371;28;20601;-67
2022/04/16 04:57:33;;;;;;;17.75;8.50;;;;;;;11.66;52.42;99614.91;3138481;28;20053;-66
2022/04/16 04:59:20;;;;;;;9.98;5.65;;;;;;;11.66;52.37;99607.06;3136401;28;20602;-67
2022/04/16 05:00:54;;;;;;;12.13;4.85;;;;;;;11.61;52.15;99615.97;3136127;28;20131;-66
2022/04/16 05:02:26;;;;;;;11.90;5.63;;;;;;;11.58;52.45;99616.13;3135716;28;20067;-66
2022/04/16 05:03:57;;;;;;;14.15;5.88;;;;;;;11.58;52.12;99607.47;3137267;28;20497;-67
2022/04/16 05:05:29;;;;;;;15.80;5.57;;;;;;;11.56;52.48;99615.34;3138917;28;20252;-66
2022/04/16 05:07:03;;;;;;;14.35;6.35;;;;;;;11.57;52.25;99614.44;3137830;28;20055;-67
2022/04/16 05:08:35;;;;;;;10.25;5.57;;;;;;;11.55;52.33;99612.84;3136884;28;20045;-66
2022/04/16 05:10:09;;;;;;;16.58;6.55;;;;;;;11.56;52.39;99617.13;3139889;28;20441;-67
2022/04/16 05:11:41;;;;;;;13.75;5.68;;;;;;;11.35;52.62;99578.19;3138969;28;20056;-73
2022/04/16 05:13:12;;;;;;;15.77;6.03;;;;;;;11.58;52.27;99607.47;3129139;28;20052;-68
2022/04/16 05:14:43;;;;;;;14.45;5.70;;;;;;;11.68;52.10;99606.03;3132518;28;20427;-68
2022/04/16 05:16:17;;;;;;;15.02;5.40;;;;;;;11.74;51.96;99610.09;3128961;28;20153;-67
2022/04/16 05:17:49;;;;;;;11.32;5.68;;;;;;;11.80;51.76;99615.84;3132831;28;20057;-67
2022/04/16 05:19:21;;;;;;;10.30;5.15;;;;;;;11.81;51.88;99611.47;3132563;28;20495;-72
2022/04/16 05:20:53;;;;;;;19.58;6.00;;;;;;;11.82;51.41;99606.16;3135574;28;20590;-68
2022/04/16 05:22:25;;;;;;;12.05;4.53;;;;;;;11.79;51.65;99595.03;3132102;28;20496;-71
2022/04/16 05:23:57;;;;;;;11.48;4.93;;;;;;;11.99;51.24;99618.34;3132548;28;20057;-69
2022/04/16 05:25:28;;;;;;;12.27;5.55;;;;;;;12.04;51.09;99612.88;3131197;28;20178;-66
2022/04/16 05:27:00;;;;;;;15.27;5.60;;;;;;;12.08;51.06;99622.22;3132827;28;20574;-65
2022/04/16 05:28:32;;;;;;;12.20;5.18;;;;;;;12.11;50.86;99621.22;3126169;28;20049;-68
2022/04/16 05:30:12;;;;;;;9.23;5.22;;;;;;;12.14;50.88;99613.22;3132066;28;20056;-64
2022/04/16 05:31:46;;;;;;;11.20;5.90;;;;;;;12.18;51.09;99620.78;3133474;28;20044;-67
2022/04/16 05:34:18;;;;;;;9.95;5.50;;;;;;;12.14;50.93;99603.63;3134412;28;20053;-69
2022/04/16 05:35:19;;;;;;;12.70;5.45;;;;;;;12.29;50.78;99618.44;3124790;28;20136;-63
2022/04/16 05:36:52;;;;;;;15.00;5.60;;;;;;;12.32;50.73;99608.75;3124952;28;20825;-64
2022/04/16 05:38:24;;;;;;;11.88;5.05;;;;;;;12.37;50.46;99614.56;3124530;28;20131;-63
2022/04/16 05:39:56;;;;;;;20.77;5.60;;;;;;;12.41;50.50;99614.28;3126425;28;20182;-64
2022/04/16 05:41:27;;;;;;;15.93;5.50;;;;;;;12.48;50.56;99613.03;3125576;28;20053;-64
2022/04/16 05:42:59;;;;;;;10.25;4.65;;;;;;;12.53;50.10;99616.22;3127354;28;20437;-64
2022/04/16 05:44:31;;;;;;;12.25;5.22;;;;;;;12.53;50.02;99618.00;3124603;28;20056;-66
2022/04/16 05:46:02;;;;;;;10.73;4.88;;;;;;;12.56;50.19;99614.38;3124429;28;20060;-65
2022/04/16 05:47:35;;;;;;;12.40;4.72;;;;;;;12.61;49.93;99605.34;3125883;28;20391;-66
2022/04/16 05:49:07;;;;;;;9.38;4.57;;;;;;;12.68;50.06;99595.38;3125004;28;20057;-65
2022/04/16 05:50:39;;;;;;;12.70;5.10;;;;;;;12.81;49.75;99598.13;3125042;28;20107;-65
2022/04/16 05:52:11;;;;;;;10.75;4.47;;;;;;;12.89;49.60;99591.53;3125156;28;20065;-64
2022/04/16 05:53:43;;;;;;;8.90;4.50;;;;;;;13.00;49.57;99597.94;3125149;28;20060;-64
2022/04/16 05:55:15;;;;;;;12.13;4.60;;;;;;;13.03;49.51;99574.22;3126297;28;20048;-70
2022/04/16 05:56:46;;;;;;;13.25;5.35;;;;;;;13.19;49.32;99593.28;3127893;28;20053;-66
2022/04/16 05:58:18;;;;;;;13.63;5.47;;;;;;;13.31;49.04;99590.00;3124766;28;20442;-69
2022/04/16 05:59:50;;;;;;;15.80;5.30;;;;;;;13.40;48.67;99592.06;3132651;28;20130;-70
2022/04/16 06:01:23;;;;;;;10.32;4.75;;;;;;;13.50;48.34;99584.47;3127449;28;20179;-65
2022/04/16 06:02:57;;;;;;;13.45;5.55;;;;;;;13.61;48.29;99594.31;3127366;28;20121;-67
2022/04/16 06:04:29;;;;;;;14.40;4.68;;;;;;;13.72;47.80;99596.25;3130834;28;20056;-66
2022/04/16 06:06:01;;;;;;;9.48;5.20;;;;;;;13.77;47.65;99596.81;3127283;28;20059;-67
2022/04/16 06:07:32;;;;;;;11.43;5.07;;;;;;;13.81;47.70;99595.69;3126885;28;20542;-66
2022/04/16 06:09:04;;;;;;;11.32;4.97;;;;;;;13.87;47.68;99590.94;3130995;28;20056;-64
2022/04/16 06:10:37;;;;;;;10.00;5.25;;;;;;;13.98;47.53;99590.25;3133833;28;20053;-65
2022/04/16 06:12:10;;;;;;;21.40;5.38;;;;;;;14.10;47.30;99601.72;3127533;28;20049;-65
2022/04/16 06:13:42;;;;;;;14.95;4.75;;;;;;;13.98;47.11;99563.22;3129917;28;20095;-71
2022/04/16 06:15:13;;;;;;;11.35;5.00;;;;;;;14.17;47.23;99573.38;3130837;28;20120;-72
2022/04/16 06:16:45;;;;;;;13.25;4.80;;;;;;;14.38;47.11;99579.88;3125240;28;20049;-73
2022/04/16 06:18:22;;;;;;;16.80;4.78;;;;;;;14.53;46.44;99588.56;3127978;28;20065;-78
2022/04/16 06:19:54;;;;;;;16.25;4.28;;;;;;;14.59;46.19;99577.66;3127542;28;20057;-77
2022/04/16 06:21:34;;;;;;;7.18;3.97;;;;;;;14.55;46.30;99547.34;3131811;28;20053;-75
2022/04/16 06:23:07;;;;;;;11.23;4.15;;;;;;;14.86;46.14;99585.50;3125305;28;20053;-73
2022/04/16 06:24:40;;;;;;;9.95;4.32;;;;;;;14.87;45.52;99560.94;3128306;28;20053;-76
2022/04/16 06:26:12;;;;;;;6.95;4.07;;;;;;;15.03;45.27;99571.25;3130323;28;20191;-74
2022/04/16 06:27:44;;;;;;;7.65;4.03;;;;;;;15.10;45.15;99567.28;3126382;28;20059;-77
2022/04/16 06:29:16;;;;;;;13.95;4.47;;;;;;;15.17;45.09;99563.31;3131565;28;20049;-76
2022/04/16 06:30:48;;;;;;;12.57;4.68;;;;;;;15.32;44.72;99571.91;3131548;28;20045;-71
2022/04/16 06:32:20;;;;;;;6.93;3.83;;;;;;;15.38;44.46;99571.50;3131425;28;20041;-73
2022/04/16 06:33:53;;;;;;;7.68;4.32;;;;;;;15.37;44.52;99547.97;3127624;28;20061;-74
2022/04/16 06:35:25;;;;;;;11.43;4.10;;;;;;;15.57;44.72;99571.06;3127023;28;20547;-75
2022/04/16 06:36:57;;;;;;;12.30;4.45;;;;;;;15.61;44.29;99561.19;3130344;28;20136;-78
2022/04/16 06:38:29;;;;;;;6.22;4.20;;;;;;;15.65;44.17;99562.66;3128400;28;20052;-74
2022/04/16 06:40:11;;;;;;;10.25;4.18;;;;;;;15.68;44.24;99565.94;3131067;28;20123;-82
2022/04/16 06:41:43;;;;;;;16.27;3.97;;;;;;;15.74;44.13;99569.09;3132189;28;20049;-76
2022/04/16 06:43:15;;;;;;;6.53;3.53;;;;;;;15.80;44.26;99566.84;3130739;28;20041;-74
2022/04/16 06:44:48;;;;;;;10.25;4.07;;;;;;;15.88;44.36;99566.28;3128783;28;20064;-76
2022/04/16 06:46:19;;;;;;;9.40;4.25;;;;;;;15.96;44.13;99560.50;3125267;28;20091;-75
2022/04/16 06:47:51;;;;;;;8.00;3.88;;;;;;;16.05;43.98;99560.69;3128550;28;20593;-75
2022/04/16 06:49:29;;;;;;;10.60;4.35;;;;;;;16.06;43.60;99557.13;3129255;28;20048;-81
2022/04/16 06:51:04;;;;;;;8.70;3.95;;;;;;;15.94;43.67;99526.47;3126914;28;20171;-85
2022/04/16 06:54:23;;;;;;;7.35;4.00;;;;;;;16.15;43.32;99532.00;3133911;28;20446;-73
2022/04/16 06:56:21;;;;;;;7.82;4.43;;;;;;;16.18;43.31;99530.91;3142135;28;20056;-84
2022/04/16 06:57:52;;;;;;;8.35;4.72;;;;;;;16.24;43.31;99544.47;3146136;28;20063;-69
2022/04/16 06:59:24;;;;;;;8.07;4.32;;;;;;;16.26;43.34;99528.56;3146500;28;20083;-71
2022/04/16 07:00:57;;;;;;;12.20;4.93;;;;;;;16.34;43.14;99534.09;3141941;28;20059;-71
2022/04/16 07:02:31;;;;;;;14.32;4.50;;;;;;;16.51;42.66;99543.38;3136566;28;20041;-78
2022/04/16 07:04:03;;;;;;;18.20;4.50;;;;;;;16.58;42.61;99540.16;3144418;28;20055;-73
2022/04/16 07:05:37;;;;;;;17.50;9.23;;;;;;;16.73;42.61;99545.25;3138278;28;20052;-72
2022/04/16 07:07:09;;;;;;;36.05;20.80;;;;;;;16.74;42.53;99520.63;3137019;28;20068;-76
2022/04/16 07:08:44;;;;;;;28.52;17.90;;;;;;;16.86;42.50;99519.75;3146553;28;20092;-76
2022/04/16 07:10:17;;;;;;;17.65;9.32;;;;;;;17.03;42.12;99535.06;3143588;28;20124;-75
2022/04/16 07:11:49;;;;;;;12.00;5.00;;;;;;;17.09;41.82;99523.22;3138335;28;20426;-78
2022/04/16 07:13:21;;;;;;;8.77;4.05;;;;;;;17.22;41.29;99523.97;3140070;28;20044;-75
2022/04/16 07:14:52;;;;;;;11.40;4.70;;;;;;;17.29;41.27;99524.34;3145346;28;20048;-72
2022/04/16 07:16:24;;;;;;;7.85;3.78;;;;;;;17.29;40.73;99530.44;3141090;28;20106;-74
2022/04/16 07:17:56;;;;;;;8.02;3.85;;;;;;;17.34;40.79;99524.84;3140719;28;20075;-70
2022/04/16 07:19:29;;;;;;;7.25;3.95;;;;;;;17.31;40.61;99508.44;3149087;28;20048;-72
2022/04/16 07:21:02;;;;;;;14.45;3.90;;;;;;;17.46;40.38;99526.50;3143325;28;20095;-73
2022/04/16 07:22:34;;;;;;;;;;;;;;;17.52;40.68;99530.47;3138034;28;20500;-71
2022/04/16 07:24:06;;;;;;;9.65;4.15;;;;;;;17.59;40.56;99520.28;3140398;28;19925;-73
2022/04/16 07:25:38;;;;;;;8.00;3.97;;;;;;;17.63;40.35;99517.28;3143517;28;20062;-72
2022/04/16 07:27:10;;;;;;;11.98;4.38;;;;;;;17.70;40.20;99522.91;3151989;28;20044;-69
2022/04/16 07:28:42;;;;;;;16.30;4.53;;;;;;;17.79;39.98;99519.56;3142293;28;20060;-69
2022/04/16 07:30:14;;;;;;;12.00;5.15;;;;;;;17.89;39.96;99515.22;3152518;28;20040;-67